createdAt,value
2023-04-17T00:04:10.742Z,61785.09
2023-04-17T00:09:13.941Z,61767.47
2023-04-17T00:14:18.200Z,61791.81
2023-04-17T00:19:20.896Z,61792.34
2023-04-17T00:24:23.575Z,61795.88
2023-04-17T00:29:27.647Z,61782.81
2023-04-17T00:34:30.441Z,61797.84
2023-04-17T00:39:35.268Z,61772.31
2023-04-17T00:44:39.350Z,61786.38
2023-04-17T00:49:42.231Z,61780.13
2023-04-17T00:54:45.087Z,61777.50
2023-04-17T00:59:49.538Z,61776.00
2023-04-17T01:04:52.270Z,61796.75
2023-04-17T01:09:55.332Z,61800.88
2023-04-17T01:14:59.383Z,61772.31
2023-04-17T01:20:06.219Z,61764.53
2023-04-17T01:25:10.740Z,61784.72
2023-04-17T01:30:14.598Z,61787.91
2023-04-17T01:35:17.445Z,61787.22
2023-04-17T01:40:21.660Z,61776.97
2023-04-17T01:45:25.375Z,61771.25
2023-04-17T01:50:28.674Z,61775.94
2023-04-17T01:55:32.656Z,61771.78
2023-04-17T02:00:37.289Z,61770.72
2023-04-17T02:05:39.881Z,61805.47
2023-04-17T02:10:44.474Z,61781.09
2023-04-17T02:15:47.153Z,61779.59
2023-04-17T02:20:51.817Z,61774.41
2023-04-17T02:25:56.124Z,61819.63
2023-04-17T02:30:58.836Z,61783.34
2023-04-17T02:36:01.546Z,61798.91
2023-04-17T02:41:06.352Z,61784.88
2023-04-17T02:46:10.508Z,61807.72
2023-04-17T02:51:13.280Z,61803.66
2023-04-17T02:56:17.583Z,61780.38
2023-04-17T03:01:21.544Z,61798.47
2023-04-17T03:06:24.910Z,61786.00
2023-04-17T03:11:29.332Z,61759.66
2023-04-17T03:16:32.024Z,61818.81
2023-04-17T03:21:34.883Z,61789.16
2023-04-17T03:26:40.912Z,61828.72
2023-04-17T03:31:43.555Z,61786.09
2023-04-17T03:36:46.654Z,61801.66
2023-04-17T03:41:50.758Z,61796.94
2023-04-17T03:46:53.576Z,61810.97
2023-04-17T03:51:57.468Z,61798.06
2023-04-17T03:57:01.505Z,61817.16
2023-04-17T04:02:04.331Z,61777.78
2023-04-17T04:07:07.122Z,61833.91
2023-04-17T04:12:11.571Z,61808.03
2023-04-17T04:17:14.236Z,61817.34
2023-04-17T04:22:18.558Z,61781.44
2023-04-17T04:27:23.090Z,61815.63
2023-04-17T04:32:27.948Z,61820.34
2023-04-17T04:37:31.800Z,61780.03
2023-04-17T04:42:35.816Z,61773.31
2023-04-17T04:47:41.952Z,61786.28
2023-04-17T04:52:44.705Z,61802.78
2023-04-17T04:57:53.472Z,61809.63
2023-04-17T05:02:56.407Z,61799.44
2023-04-17T05:07:59.280Z,61813.47
2023-04-17T05:13:04.388Z,61804.69
2023-04-17T05:18:07.144Z,61805.28
2023-04-17T05:23:11.056Z,61818.34
2023-04-17T05:28:16.777Z,61805.50
2023-04-17T05:33:19.890Z,61874.06
2023-04-17T05:38:23.684Z,61793.69
2023-04-17T05:43:27.699Z,61817.66
2023-04-17T05:48:30.522Z,61867.56
2023-04-17T05:53:33.255Z,61843.66
2023-04-17T05:58:37.356Z,61848.50
2023-04-17T06:03:40.154Z,61893.09
2023-04-17T06:08:44.502Z,61859.53
2023-04-17T06:13:48.817Z,61835.69
2023-04-17T06:18:51.557Z,61847.13
2023-04-17T06:23:54.217Z,61882.56
2023-04-17T06:28:58.414Z,61858.72
2023-04-17T06:34:01.140Z,61855.69
2023-04-17T06:39:03.884Z,61848.66
2023-04-17T06:44:08.177Z,61904.25
2023-04-17T06:49:11.042Z,61898.56
2023-04-17T06:54:14.084Z,61900.94
2023-04-17T06:59:18.282Z,61923.09
2023-04-17T07:04:21.736Z,61922.66
2023-04-17T07:09:25.166Z,61961.09
2023-04-17T07:14:33.547Z,61996.59
2023-04-17T07:19:36.252Z,61953.41
2023-04-17T07:24:38.991Z,61974.91
2023-04-17T07:29:44.234Z,61998.47
2023-04-17T07:34:47.576Z,61969.16
2023-04-17T07:39:51.114Z,62010.94
2023-04-17T07:44:55.227Z,62039.97
2023-04-17T07:50:16.060Z,62026.53
2023-04-17T07:55:18.809Z,62027.78
2023-04-17T08:00:23.484Z,62068.41
2023-04-17T08:05:26.325Z,62071.81
2023-04-17T08:10:29.427Z,62099.09
2023-04-17T08:15:33.589Z,62073.69
2023-04-17T08:20:36.727Z,62110.38
2023-04-17T08:25:39.362Z,62140.97
2023-04-17T08:30:43.402Z,62197.66
2023-04-17T08:35:46.588Z,62233.16
2023-04-17T08:40:52.286Z,62263.72
2023-04-17T08:45:56.905Z,62271.13
2023-04-17T08:50:59.622Z,62273.09
2023-04-17T08:56:06.866Z,62306.16
2023-04-17T09:01:15.827Z,62354.84
2023-04-17T09:06:19.222Z,62410.81
2023-04-17T09:11:21.959Z,62381.94
2023-04-17T09:16:26.064Z,62402.06
2023-04-17T09:21:29.944Z,62452.63
2023-04-17T09:26:34.146Z,62487.66
2023-04-17T09:31:40.576Z,62541.22
2023-04-17T09:36:44.253Z,62540.41
2023-04-17T09:41:48.127Z,62645.78
2023-04-17T09:46:54.056Z,62642.00
2023-04-17T09:51:58.711Z,62671.63
2023-04-17T09:57:03.873Z,62652.38
2023-04-17T10:02:11.633Z,62687.72
2023-04-17T10:07:16.671Z,62722.13
2023-04-17T10:12:21.791Z,62645.97
2023-04-17T10:17:28.606Z,62737.44
2023-04-17T10:22:34.798Z,62798.75
2023-04-17T10:27:45.426Z,62796.28
2023-04-17T10:33:36.222Z,62849.81
2023-04-17T10:38:38.767Z,62814.72
2023-04-17T10:43:43.315Z,62787.13
2023-04-17T10:48:52.586Z,62799.28
2023-04-17T10:53:57.789Z,62809.19
2023-04-17T10:59:02.446Z,62882.44
2023-04-17T11:04:07.239Z,62902.69
2023-04-17T11:09:12.262Z,62884.03
2023-04-17T11:14:17.716Z,63075.78
2023-04-17T11:19:23.576Z,63172.13
2023-04-17T11:24:26.969Z,63156.09
2023-04-17T11:29:32.093Z,63082.59
2023-04-17T11:34:38.194Z,62973.72
2023-04-17T11:39:44.150Z,63042.13
2023-04-17T11:44:47.038Z,63084.06
2023-04-17T11:49:52.576Z,63083.34
2023-04-17T11:54:59.004Z,63129.00
2023-04-17T12:00:27.506Z,63172.44
2023-04-17T12:05:32.302Z,63135.22
2023-04-17T12:10:39.815Z,63148.47
2023-04-17T12:15:42.730Z,63097.84
2023-04-17T12:20:47.556Z,63065.22
2023-04-17T12:25:50.275Z,63056.50
2023-04-17T12:31:14.211Z,63061.09
2023-04-17T12:36:18.303Z,63067.41
2023-04-17T12:41:21.891Z,63002.91
2023-04-17T12:46:24.808Z,62829.19
2023-04-17T12:51:29.380Z,63064.84
2023-04-17T12:56:32.035Z,62987.69
2023-04-17T13:01:34.821Z,62858.38
2023-04-17T13:06:40.152Z,62825.34
2023-04-17T13:11:42.888Z,62709.69
2023-04-17T13:16:46.211Z,62807.00
2023-04-17T13:21:51.756Z,62832.75
2023-04-17T13:26:59.782Z,62717.28
2023-04-17T13:32:02.553Z,62707.56
2023-04-17T13:37:07.293Z,62978.97
2023-04-17T13:42:10.401Z,63175.69
2023-04-17T13:47:17.534Z,63112.84
2023-04-17T13:52:25.876Z,62977.41
2023-04-17T13:57:54.296Z,63081.22
2023-04-17T14:03:00.211Z,63189.75
2023-04-17T14:08:04.519Z,63163.91
2023-04-17T14:13:07.484Z,63190.44
2023-04-17T14:18:17.411Z,63124.59
2023-04-17T14:23:29.871Z,63122.72
2023-04-17T14:28:45.566Z,63080.91
2023-04-17T14:33:58.728Z,63245.91
2023-04-17T14:39:05.655Z,63261.06
2023-04-17T14:44:08.970Z,62888.28
2023-04-17T14:49:19.440Z,62745.91
2023-04-17T14:54:28.374Z,62627.69
2023-04-17T14:59:31.115Z,62610.94
2023-04-17T15:04:37.128Z,62573.78
2023-04-17T15:09:46.429Z,62771.44
2023-04-17T15:14:51.013Z,62898.00
2023-04-17T15:19:55.759Z,62940.97
2023-04-17T15:24:59.860Z,62914.31
2023-04-17T15:30:05.006Z,62821.22
2023-04-17T15:35:08.354Z,62756.00
2023-04-17T15:40:13.249Z,62921.56
2023-04-17T15:45:21.174Z,62895.97
2023-04-17T15:50:25.962Z,62889.22
2023-04-17T15:55:30.188Z,62843.13
2023-04-17T16:00:34.069Z,62938.47
2023-04-17T16:05:36.875Z,63068.22
2023-04-17T16:10:40.892Z,63042.22
2023-04-17T16:15:43.655Z,62866.78
2023-04-17T16:20:46.427Z,62727.25
2023-04-17T16:25:51.317Z,62826.13
2023-04-17T16:30:54.046Z,62819.78
2023-04-17T16:35:57.242Z,62884.72
2023-04-17T16:41:02.000Z,62846.53
2023-04-17T16:46:14.362Z,62796.94
2023-04-17T16:51:25.056Z,62898.97
2023-04-17T16:56:29.069Z,62841.50
2023-04-17T17:01:33.222Z,62856.50
2023-04-17T17:06:39.105Z,62790.97
2023-04-17T17:11:43.404Z,62718.09
2023-04-17T17:16:50.090Z,62681.91
2023-04-17T17:21:55.685Z,62567.97
2023-04-17T17:26:59.681Z,62500.34
2023-04-17T17:32:06.092Z,62479.81
2023-04-17T17:37:09.160Z,62439.47
2023-04-17T17:42:36.367Z,62409.06
2023-04-17T17:47:39.924Z,62400.25
2023-04-17T17:52:42.730Z,62383.78
2023-04-17T17:57:49.701Z,62375.59
2023-04-17T18:02:53.048Z,62334.88
2023-04-17T18:07:55.911Z,62268.97
2023-04-17T18:12:59.990Z,62304.22
2023-04-17T18:18:03.359Z,62253.19
2023-04-17T18:23:07.274Z,62285.16
2023-04-17T18:28:14.081Z,62242.94
2023-04-17T18:33:17.309Z,62225.91
2023-04-17T18:38:22.209Z,62234.41
2023-04-17T18:43:27.479Z,62170.88
2023-04-17T18:48:30.166Z,62163.66
2023-04-17T18:53:33.671Z,62136.19
2023-04-17T18:58:40.769Z,62124.28
2023-04-17T19:03:43.539Z,62116.22
2023-04-17T19:08:46.280Z,62105.00
2023-04-17T19:13:50.454Z,62107.88
2023-04-17T19:18:53.212Z,62111.38
2023-04-17T19:23:56.307Z,62062.19
2023-04-17T19:29:03.076Z,62046.59
2023-04-17T19:34:06.967Z,62043.41
2023-04-17T19:39:09.730Z,62048.38
2023-04-17T19:44:14.342Z,62017.34
2023-04-17T19:49:17.107Z,62012.91
2023-04-17T19:54:19.967Z,61993.06
2023-04-17T19:59:24.621Z,62020.63
2023-04-17T20:04:27.560Z,62032.47
2023-04-17T20:09:31.648Z,62004.19
2023-04-17T20:14:36.349Z,62016.97
2023-04-17T20:19:39.025Z,61982.09
2023-04-17T20:24:41.768Z,61971.09
2023-04-17T20:29:46.254Z,61970.56
2023-04-17T20:34:49.169Z,61991.91
2023-04-17T20:39:52.903Z,61972.88
2023-04-17T20:44:57.193Z,61942.69
2023-04-17T20:50:04.114Z,61929.13
2023-04-17T20:55:10.224Z,61912.66
2023-04-17T21:00:15.883Z,61894.00
2023-04-17T21:05:19.292Z,61906.34
2023-04-17T21:10:21.923Z,61885.75
2023-04-17T21:15:25.932Z,61834.03
2023-04-17T21:20:28.778Z,61833.28
2023-04-17T21:25:31.502Z,61840.34
2023-04-17T21:30:37.063Z,61841.88
2023-04-17T21:35:40.926Z,61827.22
2023-04-17T21:45:51.792Z,61824.38
2023-04-17T21:50:56.659Z,61849.97
2023-04-17T21:55:59.496Z,61836.06
2023-04-17T22:01:04.571Z,61848.84
2023-04-17T22:06:07.811Z,61817.84
2023-04-17T22:11:10.613Z,61830.69
2023-04-17T22:16:14.636Z,61807.09
2023-04-17T22:21:35.422Z,61785.00
2023-04-17T22:26:38.091Z,61772.56
2023-04-17T22:31:42.242Z,61752.56
2023-04-17T22:36:44.896Z,61742.84
2023-04-17T22:41:47.568Z,61734.81
2023-04-17T22:46:51.792Z,61731.47
2023-04-17T22:51:54.759Z,61725.25
2023-04-17T22:56:57.625Z,61688.09
2023-04-17T23:02:04.378Z,61700.34
2023-04-17T23:07:11.608Z,61652.31
2023-04-17T23:12:14.188Z,61665.94
2023-04-17T23:17:19.605Z,61656.28
2023-04-17T23:22:22.503Z,61644.50
2023-04-17T23:27:25.885Z,61636.03
2023-04-17T23:32:32.285Z,61656.69
2023-04-17T23:37:35.799Z,61629.47
2023-04-17T23:42:38.765Z,61619.28
2023-04-17T23:47:44.421Z,61590.13
2023-04-17T23:52:47.520Z,61590.81
2023-04-17T23:58:11.462Z,61616.06
